Banks, Mississippi
Current Conditions -  °F | °C
As of 7:15 AM on Thursday 18 Dec 2014 (Local Time) from KUTA Reporting Station
Broken Clouds Broken Clouds  
Wind Chill: 35°   Ceiling: 3800
Heat Index: 39°   Visibility: 10mi
Dew Point: 36°   Wind: 6mph
Humidity: 87%   Direction: 90°E
Pressure: 30.24"   Gusts: NA
Location:  34.8092°N, 90.3159°W
Report Text: KUTA 181315Z AUTO 09005KT 10SM BKN038 BKN048 BKN075 04/02 A3024 RMK AO2
Loading
Personal Weather Stations






























Interactive Weather Map New forecast layout! Learn more

10-Day Weather Forecast

Advertisements
Track Severe Weather on mobile